createdAt,value
2018-04-15T00:00:36.641Z,11.92
2018-04-15T00:03:05.804Z,11.81
2018-04-15T00:05:35.317Z,11.80
2018-04-15T00:08:04.805Z,11.78
2018-04-15T00:10:34.718Z,11.80
2018-04-15T00:13:04.622Z,11.69
2018-04-15T00:15:34.132Z,11.62
2018-04-15T00:18:04.026Z,11.67
2018-04-15T00:20:33.554Z,11.57
2018-04-15T00:23:03.477Z,11.55
2018-04-15T00:25:33.365Z,11.69
2018-04-15T00:28:02.876Z,11.60
2018-04-15T00:30:32.392Z,11.61
2018-04-15T00:33:01.897Z,11.48
2018-04-15T00:35:31.828Z,11.47
2018-04-15T00:38:01.726Z,11.41
2018-04-15T00:40:31.634Z,11.40
2018-04-15T00:43:01.147Z,11.35
2018-04-15T00:45:30.646Z,11.39
2018-04-15T00:48:00.159Z,11.40
2018-04-15T00:50:29.660Z,11.42
2018-04-15T00:52:59.170Z,11.31
2018-04-15T00:55:28.678Z,11.34
2018-04-15T00:57:58.581Z,11.29
2018-04-15T01:00:28.115Z,11.29
2018-04-15T01:02:58.011Z,11.26
2018-04-15T01:05:27.908Z,11.29
2018-04-15T01:07:57.432Z,11.28
2018-04-15T01:10:27.326Z,11.27
2018-04-15T01:12:56.838Z,11.23
2018-04-15T01:15:26.372Z,11.21
2018-04-15T01:17:56.274Z,11.16
2018-04-15T01:20:26.194Z,11.18
2018-04-15T01:22:56.088Z,11.06
2018-04-15T01:25:25.596Z,11.10
2018-04-15T01:27:54.817Z,11.07
2018-04-15T01:30:24.708Z,11.05
2018-04-15T01:32:54.206Z,10.91
2018-04-15T01:35:23.714Z,10.89
2018-04-15T01:37:53.214Z,10.76
2018-04-15T01:40:22.715Z,10.81
2018-04-15T01:42:52.222Z,10.70
2018-04-15T01:45:22.152Z,10.73
2018-04-15T01:47:51.413Z,10.76
2018-04-15T01:50:20.901Z,10.77
2018-04-15T01:52:50.430Z,10.67
2018-04-15T01:55:19.934Z,10.75
2018-04-15T01:57:49.423Z,10.73
2018-04-15T02:00:18.932Z,10.79
2018-04-15T02:02:48.435Z,10.85
2018-04-15T02:05:17.933Z,10.92
2018-04-15T02:07:47.433Z,10.87
2018-04-15T02:10:16.935Z,10.90
2018-04-15T02:12:46.842Z,10.95
2018-04-15T02:15:16.739Z,10.82
2018-04-15T02:17:46.259Z,10.84
2018-04-15T02:20:16.139Z,10.80
2018-04-15T02:22:45.635Z,10.66
2018-04-15T02:25:15.122Z,10.61
2018-04-15T02:27:44.615Z,10.70
2018-04-15T02:30:14.107Z,10.61
2018-04-15T02:32:43.610Z,10.65
2018-04-15T02:35:13.110Z,10.47
2018-04-15T02:37:43.013Z,10.49
2018-04-15T02:40:12.901Z,10.42
2018-04-15T02:42:42.161Z,10.39
2018-04-15T02:45:11.672Z,10.40
2018-04-15T02:47:41.743Z,10.47
2018-04-15T02:50:11.259Z,10.59
2018-04-15T02:52:41.163Z,10.63
2018-04-15T02:55:10.657Z,10.59
2018-04-15T02:57:40.153Z,10.67
2018-04-15T03:00:09.658Z,10.69
2018-04-15T03:02:39.191Z,10.63
2018-04-15T03:05:09.101Z,10.65
2018-04-15T03:07:38.783Z,10.59
2018-04-15T03:10:08.283Z,10.50
2018-04-15T03:12:37.776Z,10.45
2018-04-15T03:15:07.274Z,10.45
2018-04-15T03:17:36.799Z,10.40
2018-04-15T03:20:06.285Z,10.37
2018-04-15T03:22:35.771Z,10.47
2018-04-15T03:25:05.294Z,10.50
2018-04-15T03:27:34.789Z,10.47
2018-04-15T03:30:04.043Z,10.41
2018-04-15T03:32:33.542Z,10.41
2018-04-15T03:35:03.036Z,10.43
2018-04-15T03:37:32.528Z,10.48
2018-04-15T03:40:02.061Z,10.47
2018-04-15T03:42:31.554Z,10.46
2018-04-15T03:45:01.122Z,10.45
2018-04-15T03:47:30.699Z,10.39
2018-04-15T03:50:00.196Z,10.42
2018-04-15T03:52:29.697Z,10.36
2018-04-15T03:54:59.223Z,10.41
2018-04-15T03:57:29.132Z,10.37
2018-04-15T03:59:58.390Z,10.36
2018-04-15T04:02:27.884Z,10.39
2018-04-15T04:04:57.383Z,10.37
2018-04-15T04:07:26.880Z,10.24
2018-04-15T04:09:56.365Z,10.22
2018-04-15T04:12:26.264Z,10.40
2018-04-15T04:14:55.754Z,10.41
2018-04-15T04:17:42.086Z,10.44
2018-04-15T04:20:28.721Z,10.40
2018-04-15T04:23:15.584Z,10.32
2018-04-15T04:26:06.927Z,10.19
2018-04-15T04:28:36.845Z,10.08
2018-04-15T04:31:08.055Z,9.96
2018-04-15T04:33:37.571Z,9.83
2018-04-15T04:36:07.078Z,9.78
2018-04-15T04:41:37.123Z,9.72
2018-04-15T04:44:06.619Z,9.90
2018-04-15T04:46:36.119Z,9.92
2018-04-15T04:49:05.826Z,9.74
2018-04-15T04:51:35.322Z,9.68
2018-04-15T04:54:04.813Z,9.76
2018-04-15T04:56:34.331Z,9.74
2018-04-15T04:59:03.819Z,9.74
2018-04-15T05:01:33.365Z,9.88
2018-04-15T05:04:02.861Z,9.86
2018-04-15T05:06:32.358Z,9.93
2018-04-15T05:09:01.841Z,9.99
2018-04-15T05:11:31.349Z,10.05
2018-04-15T05:14:00.847Z,10.21
2018-04-15T05:16:30.351Z,10.28
2018-04-15T05:18:59.859Z,10.41
2018-04-15T05:21:29.367Z,10.40
2018-04-15T05:23:58.863Z,10.42
2018-04-15T05:26:28.384Z,10.50
2018-04-15T05:28:57.884Z,10.66
2018-04-15T05:31:27.375Z,10.77
2018-04-15T05:33:56.867Z,10.77
2018-04-15T05:36:26.137Z,10.79
2018-04-15T05:38:55.652Z,10.70
2018-04-15T05:41:25.549Z,10.73
2018-04-15T05:43:55.080Z,10.72
2018-04-15T05:46:24.973Z,10.73
2018-04-15T05:48:54.872Z,10.75
2018-04-15T05:51:24.423Z,10.90
2018-04-15T05:53:54.357Z,11.04
2018-04-15T05:56:24.457Z,11.13
2018-04-15T05:58:53.961Z,11.33
2018-04-15T06:01:23.886Z,11.37
2018-04-15T06:03:53.921Z,11.26
2018-04-15T06:06:23.435Z,11.38
2018-04-15T06:08:52.943Z,11.48
2018-04-15T06:11:22.483Z,11.59
2018-04-15T06:13:51.987Z,11.71
2018-04-15T06:16:21.501Z,11.96
2018-04-15T06:18:51.039Z,11.91
2018-04-15T06:21:20.723Z,12.04
2018-04-15T06:23:50.623Z,12.25
2018-04-15T06:26:19.997Z,12.32
2018-04-15T06:28:49.497Z,12.55
2018-04-15T06:31:19.057Z,12.53
2018-04-15T06:33:48.947Z,12.45
2018-04-15T06:36:18.449Z,12.42
2018-04-15T06:38:47.950Z,12.55
2018-04-15T06:41:17.503Z,12.64
2018-04-15T06:43:47.408Z,12.81
2018-04-15T06:46:17.311Z,12.94
2018-04-15T06:48:47.234Z,13.05
2018-04-15T06:51:16.895Z,13.19
2018-04-15T06:53:46.399Z,13.22
2018-04-15T06:56:15.914Z,13.24
2018-04-15T06:58:45.422Z,13.39
2018-04-15T07:01:14.922Z,13.69
2018-04-15T07:03:44.432Z,13.84
2018-04-15T07:06:13.936Z,13.85
2018-04-15T07:08:43.832Z,13.82
2018-04-15T07:11:13.602Z,13.76
2018-04-15T07:13:43.487Z,13.66
2018-04-15T07:16:12.984Z,13.57
2018-04-15T07:18:42.481Z,13.47
2018-04-15T07:21:12.013Z,13.60
2018-04-15T07:23:41.515Z,13.65
2018-04-15T07:26:11.017Z,13.71
2018-04-15T07:28:40.545Z,13.68
2018-04-15T07:31:10.435Z,13.63
2018-04-15T07:33:39.949Z,14.21
2018-04-15T07:36:09.419Z,15.05
2018-04-15T07:38:38.761Z,15.65
2018-04-15T07:41:08.033Z,15.80
2018-04-15T07:43:37.532Z,15.79
2018-04-15T07:46:06.123Z,16.44
2018-04-15T07:48:35.717Z,16.66
2018-04-15T07:51:05.214Z,16.52
2018-04-15T07:53:34.716Z,16.35
2018-04-15T07:56:04.237Z,16.13
2018-04-15T07:58:33.733Z,15.99
2018-04-15T08:01:03.221Z,16.26
2018-04-15T08:03:32.737Z,15.91
2018-04-15T08:06:02.223Z,15.81
2018-04-15T08:08:32.150Z,14.98
2018-04-15T08:11:01.665Z,14.13
2018-04-15T08:13:31.352Z,14.27
2018-04-15T08:16:01.251Z,14.23
2018-04-15T08:18:30.753Z,14.40
2018-04-15T08:21:00.258Z,14.50
2018-04-15T08:23:29.773Z,14.56
2018-04-15T08:25:59.445Z,14.60
2018-04-15T08:28:29.023Z,14.74
2018-04-15T08:30:58.535Z,14.93
2018-04-15T08:33:28.034Z,15.05
2018-04-15T08:35:57.525Z,15.10
2018-04-15T08:38:27.019Z,15.13
2018-04-15T08:40:56.933Z,15.04
2018-04-15T08:43:26.605Z,14.83
2018-04-15T08:45:56.131Z,14.88
2018-04-15T08:48:25.627Z,14.72
2018-04-15T08:50:55.120Z,14.65
2018-04-15T08:53:24.421Z,14.70
2018-04-15T08:55:53.927Z,14.85
2018-04-15T08:58:23.449Z,14.91
2018-04-15T09:00:52.977Z,15.09
2018-04-15T09:03:22.873Z,15.19
2018-04-15T09:05:52.387Z,15.21
2018-04-15T09:08:22.297Z,15.22
2018-04-15T09:10:51.808Z,15.39
2018-04-15T09:13:21.710Z,15.15
2018-04-15T09:15:51.245Z,15.21
2018-04-15T09:18:20.743Z,15.46
2018-04-15T09:20:50.671Z,15.64
2018-04-15T09:23:20.201Z,15.79
2018-04-15T09:25:49.880Z,15.69
2018-04-15T09:28:19.792Z,15.90
2018-04-15T09:30:54.911Z,16.16
2018-04-15T09:33:24.454Z,16.12
2018-04-15T09:35:53.949Z,16.48
2018-04-15T09:38:23.456Z,16.58
2018-04-15T09:40:52.990Z,16.62
2018-04-15T09:43:22.491Z,16.66
2018-04-15T09:45:52.073Z,16.67
2018-04-15T09:48:21.985Z,16.59
2018-04-15T09:50:51.488Z,16.75
2018-04-15T09:53:21.400Z,16.22
2018-04-15T09:55:51.313Z,16.46
2018-04-15T09:58:21.221Z,16.68
2018-04-15T10:00:50.889Z,16.66
2018-04-15T10:03:20.399Z,17.08
2018-04-15T10:05:49.903Z,17.21
2018-04-15T10:08:19.395Z,17.51
2018-04-15T10:10:48.977Z,17.59
2018-04-15T10:13:19.073Z,17.52
2018-04-15T10:15:48.977Z,17.85
2018-04-15T10:18:18.707Z,17.96
2018-04-15T10:20:48.615Z,18.15
2018-04-15T10:23:18.509Z,17.93
2018-04-15T10:25:47.763Z,17.95
2018-04-15T10:28:17.319Z,18.31
2018-04-15T10:30:46.626Z,18.20
2018-04-15T10:33:16.549Z,18.28
2018-04-15T10:35:46.433Z,18.42
2018-04-15T10:38:15.941Z,18.48
2018-04-15T10:40:45.449Z,18.18
2018-04-15T10:43:14.946Z,18.28
2018-04-15T10:45:44.129Z,18.05
2018-04-15T10:48:13.639Z,18.15
2018-04-15T10:50:43.147Z,18.59
2018-04-15T10:53:12.661Z,18.72
2018-04-15T10:55:42.157Z,18.99
2018-04-15T10:58:11.111Z,19.16
2018-04-15T11:00:41.015Z,19.22
2018-04-15T11:03:10.913Z,19.14
2018-04-15T11:05:40.422Z,19.41
2018-04-15T11:08:09.931Z,19.23
2018-04-15T11:10:39.386Z,18.53
2018-04-15T11:13:08.896Z,18.47
2018-04-15T11:15:38.420Z,18.25
2018-04-15T11:18:07.924Z,17.96
2018-04-15T11:20:37.440Z,18.31
2018-04-15T11:23:06.949Z,18.21
2018-04-15T11:25:36.486Z,17.98
2018-04-15T11:28:06.381Z,17.92
2018-04-15T11:30:35.893Z,18.04
2018-04-15T11:33:05.805Z,18.06
2018-04-15T11:35:35.713Z,18.29
2018-04-15T11:38:04.895Z,18.21
2018-04-15T11:40:34.431Z,18.37
2018-04-15T11:43:04.343Z,18.65
2018-04-15T11:45:33.846Z,18.98
2018-04-15T11:48:03.759Z,19.16
2018-04-15T11:50:33.289Z,18.77
2018-04-15T11:53:02.811Z,18.75
2018-04-15T11:55:32.301Z,18.81
2018-04-15T11:58:01.823Z,18.78
2018-04-15T12:00:31.315Z,18.44
2018-04-15T12:03:00.844Z,18.82
2018-04-15T12:05:30.957Z,19.03
2018-04-15T12:08:00.491Z,18.77
2018-04-15T12:10:30.027Z,18.38
2018-04-15T12:13:56.868Z,18.64
2018-04-15T12:16:26.386Z,19.17
2018-04-15T12:18:55.900Z,19.26
2018-04-15T12:21:25.824Z,19.42
2018-04-15T12:23:55.759Z,19.27
2018-04-15T12:26:25.278Z,19.62
2018-04-15T12:28:54.793Z,19.80
2018-04-15T12:31:24.386Z,20.04
2018-04-15T12:33:53.892Z,20.28
2018-04-15T12:43:35.802Z,19.63
2018-04-15T12:46:05.703Z,19.33
2018-04-15T12:48:35.239Z,19.10
2018-04-15T12:51:04.754Z,18.64
2018-04-15T12:53:34.332Z,18.31
2018-04-15T13:02:51.851Z,19.38
2018-04-15T13:05:21.423Z,20.17
2018-04-15T13:07:51.473Z,20.03
2018-04-15T13:10:20.995Z,20.02
2018-04-15T13:12:50.523Z,20.30
2018-04-15T13:15:20.029Z,20.82
2018-04-15T13:17:49.555Z,20.54
2018-04-15T13:20:19.490Z,20.55
2018-04-15T13:22:49.578Z,21.23
2018-04-15T13:25:19.472Z,21.36
2018-04-15T13:27:49.638Z,20.35
2018-04-15T13:30:19.547Z,19.95
2018-04-15T13:32:49.463Z,20.21
2018-04-15T13:35:18.744Z,20.60
2018-04-15T13:37:49.075Z,20.72
2018-04-15T13:40:18.641Z,19.85
2018-04-15T13:42:48.290Z,19.82
2018-04-15T13:45:17.788Z,19.52
2018-04-15T13:47:47.293Z,19.69
2018-04-15T13:50:16.787Z,19.56
2018-04-15T13:52:46.307Z,19.76
2018-04-15T13:55:15.813Z,20.09
2018-04-15T13:57:45.327Z,20.08
2018-04-15T14:00:15.042Z,19.95
2018-04-15T14:02:44.819Z,20.11
2018-04-15T14:05:14.317Z,19.85
2018-04-15T14:07:43.845Z,19.77
2018-04-15T14:10:13.343Z,19.71
2018-04-15T14:12:42.855Z,19.33
2018-04-15T14:15:12.131Z,19.19
2018-04-15T14:17:41.593Z,18.86
2018-04-15T14:20:11.491Z,19.30
2018-04-15T14:22:40.755Z,19.28
2018-04-15T14:25:10.280Z,19.19
2018-04-15T14:27:39.961Z,19.12
2018-04-15T14:30:09.545Z,19.23
2018-04-15T14:32:39.044Z,19.67
2018-04-15T14:35:08.550Z,20.10
2018-04-15T14:37:38.052Z,20.38
2018-04-15T14:40:07.985Z,20.34
2018-04-15T14:42:37.494Z,20.17
2018-04-15T14:45:06.992Z,19.77
2018-04-15T14:54:23.822Z,19.39
2018-04-15T14:56:53.724Z,19.84
2018-04-15T14:59:23.419Z,19.86
2018-04-15T15:01:52.964Z,20.03
2018-04-15T15:04:22.649Z,20.21
2018-04-15T15:06:52.190Z,20.36
2018-04-15T15:09:21.714Z,20.40
2018-04-15T15:11:51.223Z,19.99
2018-04-15T15:14:20.739Z,19.32
2018-04-15T15:16:50.262Z,19.06
2018-04-15T15:19:19.791Z,18.96
2018-04-15T15:21:49.489Z,19.22
2018-04-15T15:24:18.989Z,19.09
2018-04-15T15:26:48.681Z,19.35
2018-04-15T15:29:18.207Z,19.49
2018-04-15T15:31:47.484Z,19.35
2018-04-15T15:34:16.993Z,19.33
2018-04-15T15:36:46.511Z,19.08
2018-04-15T15:39:16.019Z,19.08
2018-04-15T15:41:45.559Z,19.17
2018-04-15T15:44:15.453Z,19.16
2018-04-15T15:46:45.153Z,19.16
2018-04-15T15:49:14.656Z,19.27
2018-04-15T15:51:44.208Z,19.30
2018-04-15T15:54:13.483Z,19.43
2018-04-15T15:56:43.019Z,19.52
2018-04-15T15:59:12.300Z,19.50
2018-04-15T16:01:42.201Z,19.56
2018-04-15T16:04:11.702Z,19.51
2018-04-15T16:06:41.220Z,19.63
2018-04-15T16:09:11.117Z,19.79
2018-04-15T16:11:40.606Z,19.88
2018-04-15T16:14:10.111Z,19.93
2018-04-15T16:16:39.616Z,20.04
2018-04-15T16:19:09.124Z,19.97
2018-04-15T16:21:39.259Z,20.00
2018-04-15T16:24:08.933Z,20.05
2018-04-15T16:26:39.031Z,19.92
2018-04-15T16:29:08.549Z,19.82
2018-04-15T16:31:38.062Z,19.83
2018-04-15T16:34:07.570Z,19.69
2018-04-15T16:36:37.089Z,19.62
2018-04-15T16:39:05.688Z,19.40
2018-04-15T16:41:35.319Z,19.35
2018-04-15T16:44:05.019Z,19.16
2018-04-15T16:46:34.537Z,19.16
2018-04-15T16:49:04.441Z,19.16
2018-04-15T16:51:33.963Z,19.18
2018-04-15T16:54:03.879Z,19.12
2018-04-15T16:56:33.588Z,19.09
2018-04-15T16:59:03.475Z,19.12
2018-04-15T17:01:32.993Z,19.15
2018-04-15T17:04:02.499Z,18.96
2018-04-15T17:06:32.004Z,18.95
2018-04-15T17:09:01.520Z,18.99
2018-04-15T17:11:31.444Z,18.92
2018-04-15T17:14:01.898Z,18.89
2018-04-15T17:16:31.984Z,18.79
2018-04-15T17:19:01.905Z,18.60
2018-04-15T17:21:31.802Z,18.68
2018-04-15T17:24:01.331Z,18.52
2018-04-15T17:26:31.253Z,18.64
2018-04-15T17:29:00.788Z,18.38
2018-04-15T17:31:30.352Z,18.33
2018-04-15T17:34:00.260Z,18.39
2018-04-15T17:36:29.776Z,18.45
2018-04-15T17:38:59.694Z,18.34
2018-04-15T17:41:29.750Z,18.29
2018-04-15T17:43:59.284Z,18.30
2018-04-15T17:46:28.832Z,17.95
2018-04-15T17:48:58.351Z,17.90
2018-04-15T17:51:27.856Z,17.82
2018-04-15T17:53:57.360Z,17.74
2018-04-15T17:56:26.887Z,17.68
2018-04-15T17:58:56.433Z,17.90
2018-04-15T18:01:26.158Z,17.89
2018-04-15T18:03:56.084Z,17.75
2018-04-15T18:06:25.990Z,17.64
2018-04-15T18:08:55.995Z,17.74
2018-04-15T18:11:25.940Z,17.75
2018-04-15T18:13:55.474Z,17.65
2018-04-15T18:16:25.192Z,17.63
2018-04-15T18:22:45.903Z,17.11
2018-04-15T18:25:31.736Z,17.19
2018-04-15T18:28:11.943Z,17.16
2018-04-15T18:30:43.117Z,17.12
2018-04-15T18:33:12.854Z,17.04
2018-04-15T18:35:42.364Z,17.06
2018-04-15T18:38:12.052Z,17.07
2018-04-15T18:40:41.547Z,16.86
2018-04-15T18:43:11.056Z,16.75
2018-04-15T18:45:40.595Z,16.75
2018-04-15T18:48:10.098Z,16.83
2018-04-15T18:50:39.813Z,16.82
2018-04-15T18:53:09.552Z,16.90
2018-04-15T18:55:38.843Z,16.94
2018-04-15T18:58:08.737Z,16.85
2018-04-15T19:00:38.251Z,16.80
2018-04-15T19:03:08.138Z,16.85
2018-04-15T19:05:42.642Z,16.90
2018-04-15T19:08:12.692Z,16.84
2018-04-15T19:10:42.207Z,16.86
2018-04-15T19:13:12.105Z,16.82
2018-04-15T19:15:41.629Z,16.87
2018-04-15T19:18:11.592Z,16.86
2018-04-15T19:20:41.660Z,16.82
2018-04-15T19:23:11.626Z,16.73
2018-04-15T19:25:41.152Z,16.71
2018-04-15T19:28:10.670Z,16.59
2018-04-15T19:30:40.428Z,16.55
2018-04-15T19:33:09.946Z,16.45
2018-04-15T19:35:39.491Z,16.42
2018-04-15T19:38:09.009Z,16.30
2018-04-15T19:40:38.520Z,16.30
2018-04-15T19:43:07.853Z,16.23
2018-04-15T19:45:37.161Z,16.26
2018-04-15T19:48:06.478Z,16.21
2018-04-15T19:50:35.781Z,16.22
2018-04-15T19:53:05.330Z,16.22
2018-04-15T19:55:34.836Z,16.16
2018-04-15T19:58:04.357Z,16.13
2018-04-15T20:00:34.276Z,16.15
2018-04-15T20:03:04.183Z,16.19
2018-04-15T20:05:34.084Z,16.29
2018-04-15T20:08:03.590Z,16.33
2018-04-15T20:10:33.084Z,16.44
2018-04-15T20:13:02.791Z,16.24
2018-04-15T20:15:32.299Z,16.20
2018-04-15T20:18:01.818Z,16.20
2018-04-15T20:20:31.110Z,16.04
2018-04-15T20:23:00.628Z,16.08
2018-04-15T20:25:30.130Z,16.12
2018-04-15T20:27:59.629Z,16.13
2018-04-15T20:30:29.170Z,16.14
2018-04-15T20:32:59.104Z,16.15
2018-04-15T20:35:28.627Z,16.16
2018-04-15T20:37:58.137Z,16.09
2018-04-15T20:40:27.440Z,16.08
2018-04-15T20:42:56.967Z,16.11
2018-04-15T20:45:26.465Z,16.10
2018-04-15T20:47:55.996Z,16.11
2018-04-15T20:50:25.520Z,16.12
2018-04-15T20:52:55.421Z,16.15
2018-04-15T20:55:25.387Z,16.17
2018-04-15T20:57:55.100Z,16.05
2018-04-15T21:00:24.614Z,16.21
2018-04-15T21:02:54.112Z,16.12
2018-04-15T21:05:23.468Z,16.10
2018-04-15T21:07:53.402Z,16.03
2018-04-15T21:10:22.732Z,15.92
2018-04-15T21:12:52.252Z,15.86
2018-04-15T21:15:21.798Z,15.85
2018-04-15T21:17:52.004Z,15.93
2018-04-15T21:20:21.922Z,15.80
2018-04-15T21:22:51.638Z,15.77
2018-04-15T21:25:21.571Z,15.76
2018-04-15T21:27:51.477Z,15.77
2018-04-15T21:30:21.399Z,15.80
2018-04-15T21:32:51.076Z,15.79
2018-04-15T21:35:20.628Z,15.68
2018-04-15T21:37:50.132Z,15.66
2018-04-15T21:40:19.402Z,15.85
2018-04-15T21:42:49.305Z,15.85
2018-04-15T21:45:18.846Z,15.69
2018-04-15T21:47:48.157Z,15.64
2018-04-15T21:50:17.672Z,15.64
2018-04-15T21:52:47.181Z,15.33
2018-04-15T21:55:16.687Z,15.19
2018-04-15T21:57:46.263Z,15.00
2018-04-15T22:00:15.929Z,15.01
2018-04-15T22:02:45.453Z,14.91
2018-04-15T22:05:14.744Z,14.92
2018-04-15T22:07:44.253Z,14.96
2018-04-15T22:10:13.984Z,15.02
2018-04-15T22:12:43.899Z,15.09
2018-04-15T22:15:13.795Z,15.06
2018-04-15T22:17:43.309Z,15.12
2018-04-15T22:20:12.822Z,15.13
2018-04-15T22:22:42.713Z,15.06
2018-04-15T22:25:12.229Z,14.99
2018-04-15T22:27:41.505Z,14.90
2018-04-15T22:30:11.004Z,14.73
2018-04-15T22:32:40.505Z,14.67
2018-04-15T22:35:10.008Z,14.43
2018-04-15T22:37:39.520Z,14.27
2018-04-15T22:40:09.014Z,14.21
2018-04-15T22:42:38.526Z,14.12
2018-04-15T22:45:08.044Z,14.06
2018-04-15T22:47:37.324Z,14.08
2018-04-15T22:50:12.142Z,14.07
2018-04-15T22:52:41.658Z,14.14
2018-04-15T22:55:11.164Z,14.27
2018-04-15T22:57:40.676Z,14.20
2018-04-15T23:00:09.852Z,14.14
2018-04-15T23:02:39.366Z,14.19
2018-04-15T23:05:08.878Z,14.20
2018-04-15T23:07:38.391Z,14.31
2018-04-15T23:10:07.911Z,14.26
2018-04-15T23:12:37.183Z,14.29
2018-04-15T23:15:06.697Z,14.30
2018-04-15T23:17:36.221Z,14.16
2018-04-15T23:20:05.175Z,14.10
2018-04-15T23:22:35.129Z,14.14
2018-04-15T23:25:04.665Z,14.25
2018-04-15T23:27:34.199Z,14.37
2018-04-15T23:30:04.119Z,14.32
2018-04-15T23:32:33.623Z,14.23
2018-04-15T23:35:03.519Z,14.30
2018-04-15T23:37:33.024Z,14.22
2018-04-15T23:40:02.364Z,14.16
2018-04-15T23:42:31.877Z,14.14
2018-04-15T23:45:01.394Z,14.22
2018-04-15T23:47:31.107Z,14.13
2018-04-15T23:50:00.613Z,14.07
2018-04-15T23:52:30.107Z,13.91
2018-04-15T23:54:59.604Z,13.80
2018-04-15T23:57:28.875Z,13.64
2018-04-15T23:59:58.539Z,13.63
